Air Navigation Services of Czech Republic  
Last data update:  11.08.2020 01:12:27 UTC česká verze
   METEO Page displayed:  11.08.2020 01:14:04 UTC  
help
METAR EDDB 110050Z 07006KT CAVOK 20/15 Q1019 NOSIG=
METAR EDDC 110050Z 16003KT 7000 -RA SCT035 20/19 Q1018=
METAR EDDE 110050Z 03003KT CAVOK 20/18 Q1018=
METAR EDDF 110050Z 01012KT CAVOK 25/17 Q1014 NOSIG=
METAR EDDM 110050Z 02003KT CAVOK 17/16 Q1017 NOSIG=
METAR EDDN 110050Z 07004KT 040V100 CAVOK 20/15 Q1017=
METAR EDDP 110050Z VRB02KT CAVOK 21/18 Q1018 NOSIG=
METAR EDDT 110050Z 07003KT 030V100 CAVOK 21/15 Q1019=
METAR EDQM NIL
METAR EPBY 110100Z 04007KT CAVOK 18/16 Q1020=
METAR EPGD 110100Z 36003KT CAVOK 16/15 Q1022=
METAR EPKK 110100Z 06004KT CAVOK 17/16 Q1018=
METAR EPKT 110100Z 02002KT CAVOK 15/14 Q1018=
METAR EPLL 110100Z 36001KT CAVOK 16/16 Q1018=
METAR EPPO 110100Z 05007KT CAVOK 19/17 Q1019=
METAR EPRZ 110100Z 28002KT CAVOK 16/16 Q1018=
METAR EPWA 110100Z 02002KT CAVOK 22/16 Q1018 NOSIG=
METAR EPWR 110100Z VRB01KT CAVOK 19/16 Q1018=
METAR LHBP 110100Z 35005KT CAVOK 19/18 Q1016 TEMPO FEW050CB BKN100=
METAR LHSM 110045Z AUTO 31002KT 7000 NCD 20/19 Q1016=
METAR LKBC 110100Z AUTO 06004KT 020V090 9999 OVC110 18/16 Q1018=
METAR LKCV 110100Z VRB02KT 9000 NSC 19/18 Q1018 TEMPO 5000 BR RMK BLU WHT=
METAR LKKB 110100Z 33003KT CAVOK 19/18 Q1019 RMK BLU=
METAR LKKU NIL
METAR LKKV 110100Z 04003KT 010V080 CAVOK 18/15 Q1020 RMK REG QNH 1015=
METAR LKLN 110100Z AUTO VRB02KT 9999 FEW076 18/16 Q1019=
METAR LKMT 110100Z VRB02KT CAVOK 19/17 Q1018 NOSIG RMK REG QNH 1015=
METAR LKNA 110100Z 34007KT CAVOK 21/17 Q1018 RMK BLU=
METAR LKPD 110100Z 23005KT CAVOK 19/19 Q1018 RMK BLU=
METAR LKPJ 110100Z AUTO VRB02KT 9999 OVC120 22/17 Q1017=
METAR LKPR 110100Z 35004KT CAVOK 19/17 Q1019 NOSIG RMK REG QNH 1015=
METAR LKTB 110100Z VRB02KT CAVOK 22/18 Q1017 NOSIG RMK REG QNH 1015=
METAR LKVO NIL
METAR LOWI 110050Z AUTO 32004KT 9999 NSC 17/16 Q1020=
METAR LOWL 110050Z AUTO 28004KT 9999 NCD 20/17 Q1016=
METAR LOWS 110050Z AUTO 17003KT 9999 NCD 18/15 Q1017=
METAR LOWW 110050Z 36002KT CAVOK 19/17 Q1017 NOSIG=
METAR LZIB 110100Z 04005KT CAVOK 19/16 Q1017=
METAR LZKZ 110100Z 12004KT 080V150 CAVOK 18/16 Q1017=
METAR LZMC NIL
METAR LZPP 110100Z AUTO VRB01KT 9999 SCT180/// 17/16 Q1017=
METAR LZSL 110100Z 00000KT 9999 BCFG FEW002 16/15 Q1019=
METAR LZTT 110100Z 30006KT CAVOK 14/12 Q1020=
METAR LZZI 110100Z 10003KT 070V130 CAVOK 17/16 Q1018=